Time;durP1;ratioP1;P1;durP2;ratioP2;P2;SDS_P1;SDS_P2;PMS_P1;PMS_P2;Temp;Humidity;BMP_temperature;BMP_pressure;BME280_temperature;BME280_humidity;BME280_pressure;Samples;Min_cycle;Max_cycle;Signal;HPM_P1;HPM_P2
2022/08/25 00:01:54;;;;;;;16.67;4.33;;;;;;;19.33;100.00;100292.25;4204747;28;20248;-63
2022/08/25 00:04:22;;;;;;;20.07;4.37;;;;;;;19.28;100.00;100288.53;4211933;28;21584;-63
2022/08/25 00:06:49;;;;;;;17.10;4.10;;;;;;;19.33;100.00;100297.66;4210016;28;20622;-64
2022/08/25 00:09:18;;;;;;;15.97;3.90;;;;;;;19.30;100.00;100281.88;4208874;28;20241;-65
2022/08/25 00:11:48;;;;;;;17.20;4.23;;;;;;;19.29;100.00;100282.06;4206036;28;20369;-65
2022/08/25 00:14:21;;;;;;;17.47;4.03;;;;;;;19.30;100.00;100270.25;4222266;28;20948;-66
2022/08/25 00:16:47;;;;;;;14.57;4.27;;;;;;;19.30;100.00;100276.47;4208486;28;20333;-65
2022/08/25 00:19:22;;;;;;;16.80;4.77;;;;;;;19.32;100.00;100271.72;4210217;28;21889;-66
2022/08/25 00:21:49;;;;;;;17.23;4.13;;;;;;;19.35;100.00;100276.69;4196210;28;25257;-66
2022/08/25 00:24:17;;;;;;;12.33;3.47;;;;;;;19.34;100.00;100272.34;4214539;28;20240;-65
2022/08/25 00:26:53;;;;;;;14.67;4.00;;;;;;;19.33;100.00;100267.13;4213859;28;21193;-67
2022/08/25 00:29:21;;;;;;;17.90;4.20;;;;;;;19.34;100.00;100266.94;4213106;28;20329;-64
2022/08/25 00:31:48;;;;;;;11.17;3.63;;;;;;;19.37;100.00;100265.69;4211783;28;20306;-66
2022/08/25 00:34:36;;;;;;;13.70;4.20;;;;;;;19.49;100.00;100260.50;4202748;28;21451;-66
2022/08/25 00:37:06;;;;;;;17.40;4.13;;;;;;;19.42;100.00;100254.28;4207247;28;20294;-66
2022/08/25 00:39:32;;;;;;;14.23;4.20;;;;;;;19.46;100.00;100260.94;4217725;28;20292;-64
2022/08/25 00:41:59;;;;;;;12.07;4.43;;;;;;;19.39;100.00;100248.25;4214691;28;20305;-66
2022/08/25 00:44:30;;;;;;;17.07;4.60;;;;;;;19.45;100.00;100253.88;4222468;28;20240;-65
2022/08/25 00:46:59;;;;;;;17.43;4.80;;;;;;;19.41;100.00;100250.75;4206999;28;20255;-64
2022/08/25 00:49:36;;;;;;;12.47;3.90;;;;;;;19.44;100.00;100249.50;4207239;28;22213;-65
2022/08/25 00:52:07;;;;;;;15.10;4.10;;;;;;;19.46;100.00;100258.25;4211044;28;22510;-64
2022/08/25 00:54:40;;;;;;;12.13;4.10;;;;;;;19.51;100.00;100255.75;4213215;28;20235;-65
2022/08/25 00:57:08;;;;;;;11.33;4.23;;;;;;;19.47;100.00;100259.88;4211880;28;20281;-65
2022/08/25 00:59:35;;;;;;;14.73;4.43;;;;;;;19.45;100.00;100252.00;4213747;28;20324;-64
2022/08/25 01:02:04;;;;;;;18.33;4.97;;;;;;;19.47;100.00;100251.78;4214634;28;20312;-66
2022/08/25 01:04:33;;;;;;;30.60;4.57;;;;;;;19.47;100.00;100249.91;4235070;28;20675;-63
2022/08/25 01:07:00;;;;;;;14.23;4.27;;;;;;;19.48;100.00;100245.34;4220573;28;21648;-65
2022/08/25 01:09:28;;;;;;;19.03;5.17;;;;;;;19.43;100.00;100248.66;4207285;28;20580;-65
2022/08/25 01:11:55;;;;;;;17.80;4.63;;;;;;;19.48;100.00;100250.75;4223490;28;20294;-65
2022/08/25 01:14:23;;;;;;;15.97;4.67;;;;;;;19.49;100.00;100252.41;4215003;28;20439;-64
2022/08/25 01:16:52;;;;;;;19.73;4.80;;;;;;;19.53;100.00;100253.66;4197694;28;20246;-67
2022/08/25 01:19:20;;;;;;;16.60;4.30;;;;;;;19.52;100.00;100247.41;4205945;28;20327;-65
2022/08/25 01:21:49;;;;;;;14.83;4.90;;;;;;;19.54;100.00;100252.63;4213091;28;20538;-64
2022/08/25 01:24:54;;;;;;;14.20;4.40;;;;;;;19.57;100.00;100253.03;4214789;28;20295;-66
2022/08/25 01:27:22;;;;;;;12.87;4.87;;;;;;;19.50;100.00;100249.53;4211574;28;20313;-66
2022/08/25 01:29:48;;;;;;;20.80;5.20;;;;;;;19.59;100.00;100248.25;4220034;28;20229;-64
2022/08/25 01:32:15;;;;;;;19.57;5.00;;;;;;;19.53;100.00;100242.88;4216544;28;20328;-64
2022/08/25 01:34:43;;;;;;;21.03;5.27;;;;;;;19.57;100.00;100244.09;4211244;28;20284;-65
2022/08/25 01:37:12;;;;;;;22.73;5.53;;;;;;;19.58;100.00;100245.78;4226047;28;20629;-64
2022/08/25 01:39:40;;;;;;;17.60;5.57;;;;;;;19.60;100.00;100243.69;4214549;28;20376;-62
2022/08/25 01:42:10;;;;;;;15.13;5.13;;;;;;;19.63;100.00;100243.25;4209321;28;20314;-64
2022/08/25 01:44:42;;;;;;;21.87;5.63;;;;;;;19.57;100.00;100238.69;4222672;28;20361;-64
2022/08/25 01:47:09;;;;;;;22.20;5.10;;;;;;;19.58;100.00;100245.78;4209384;28;20227;-65
2022/08/25 01:49:36;;;;;;;19.70;5.53;;;;;;;19.60;100.00;100243.69;4208134;28;23603;-66
2022/08/25 01:52:14;;;;;;;17.63;5.57;;;;;;;19.67;100.00;100239.13;4199149;28;20294;-65
2022/08/25 01:54:40;;;;;;;20.67;5.33;;;;;;;19.62;100.00;100244.31;4222248;28;20227;-64
2022/08/25 01:57:07;;;;;;;19.17;5.67;;;;;;;19.63;100.00;100247.84;4229181;28;20418;-64
2022/08/25 01:59:34;;;;;;;23.00;6.13;;;;;;;19.68;100.00;100245.34;4216147;28;20239;-64
2022/08/25 02:02:01;;;;;;;19.27;5.90;;;;;;;19.70;100.00;100240.59;4222059;28;20230;-65
2022/08/25 02:04:31;;;;;;;22.40;5.20;;;;;;;19.73;100.00;100238.28;4232942;28;20640;-62
2022/08/25 02:07:02;;;;;;;20.93;5.90;;;;;;;19.72;100.00;100238.53;4220774;28;20251;-64
2022/08/25 02:09:28;;;;;;;26.47;6.50;;;;;;;19.70;100.00;100232.50;4220802;28;20239;-68
2022/08/25 02:11:55;;;;;;;17.13;5.70;;;;;;;19.68;100.00;100232.69;4219101;28;20241;-64
2022/08/25 02:14:22;;;;;;;20.20;5.97;;;;;;;19.64;100.00;100228.72;4228014;28;20303;-65
2022/08/25 02:16:51;;;;;;;20.97;6.00;;;;;;;19.75;100.00;100230.81;4201318;28;20279;-65
2022/08/25 02:19:20;;;;;;;23.40;6.07;;;;;;;19.74;100.00;100231.03;4230525;28;21314;-65
2022/08/25 02:21:47;;;;;;;21.30;6.00;;;;;;;19.71;100.00;100228.75;4221283;28;20340;-63
2022/08/25 02:24:15;;;;;;;21.13;6.60;;;;;;;19.72;100.00;100225.84;4223155;28;20236;-64
2022/08/25 02:26:41;;;;;;;16.23;6.37;;;;;;;19.71;100.00;100226.88;4196555;28;20234;-65
2022/08/25 02:29:08;;;;;;;27.87;7.10;;;;;;;19.74;100.00;100223.78;4226875;28;20313;-64
2022/08/25 02:31:36;;;;;;;20.93;6.47;;;;;;;19.85;100.00;100229.56;4218816;28;20239;-63
2022/08/25 02:34:04;;;;;;;20.17;7.13;;;;;;;19.84;100.00;100222.50;4208098;28;20295;-63
2022/08/25 02:36:31;;;;;;;17.97;7.03;;;;;;;19.82;100.00;100228.94;4220506;28;20232;-65
2022/08/25 02:38:58;;;;;;;29.27;7.13;;;;;;;19.92;100.00;100220.38;4221984;28;20246;-62
2022/08/25 02:41:25;;;;;;;22.73;6.60;;;;;;;19.97;100.00;100225.16;4231904;28;20677;-65
2022/08/25 02:43:58;;;;;;;19.13;7.87;;;;;;;19.95;100.00;100224.56;4210638;28;21929;-63
2022/08/25 02:46:26;;;;;;;23.03;6.73;;;;;;;20.00;100.00;100222.06;4211227;28;21864;-63
2022/08/25 02:48:53;;;;;;;24.00;6.83;;;;;;;20.05;100.00;100219.53;4218445;28;20378;-64
2022/08/25 02:51:21;;;;;;;16.37;6.63;;;;;;;20.05;100.00;100219.53;4230757;28;23429;-66
2022/08/25 02:53:48;;;;;;;25.50;7.67;;;;;;;20.07;100.00;100222.88;4229745;28;20290;-64
2022/08/25 02:56:17;;;;;;;22.13;7.00;;;;;;;20.09;100.00;100220.78;4231680;28;20329;-65
2022/08/25 02:58:44;;;;;;;25.00;7.57;;;;;;;20.14;100.00;100220.97;4223957;28;20337;-64
2022/08/25 03:01:12;;;;;;;25.47;7.40;;;;;;;20.09;100.00;100223.47;4222167;28;20240;-64
2022/08/25 03:03:40;;;;;;;28.77;8.10;;;;;;;20.09;100.00;100218.09;4214096;28;21660;-64
2022/08/25 03:06:11;;;;;;;32.37;7.67;;;;;;;20.10;100.00;100222.44;4221288;28;20243;-64
2022/08/25 03:08:39;;;;;;;16.07;6.63;;;;;;;20.18;100.00;100229.47;4218992;28;22083;-65
2022/08/25 03:11:06;;;;;;;27.67;7.77;;;;;;;20.27;100.00;100230.06;4235786;28;21700;-64
2022/08/25 03:13:33;;;;;;;33.13;7.87;;;;;;;20.28;100.00;100229.03;4223053;28;20463;-66
2022/08/25 03:16:01;;;;;;;26.70;7.23;;;;;;;20.26;100.00;100234.66;4222238;28;20298;-63
2022/08/25 03:18:29;;;;;;;24.57;7.17;;;;;;;20.30;100.00;100230.47;4221537;28;20239;-66
2022/08/25 03:20:57;;;;;;;31.67;7.70;;;;;;;20.19;100.00;100221.16;4227266;28;20340;-66
2022/08/25 03:23:26;;;;;;;27.87;8.00;;;;;;;20.20;100.00;100217.41;4219984;28;20231;-64
2022/08/25 03:28:40;;;;;;;25.60;7.33;;;;;;;20.30;100.00;100221.50;4225131;28;20232;-64
2022/08/25 03:31:07;;;;;;;22.90;7.43;;;;;;;20.42;100.00;100217.13;4217938;28;20236;-66
2022/08/25 03:33:34;;;;;;;29.83;8.40;;;;;;;20.35;100.00;100219.03;4222408;28;20681;-65
2022/08/25 03:36:01;;;;;;;31.80;7.03;;;;;;;20.40;100.00;100221.91;4216333;28;21675;-69
2022/08/25 03:38:27;;;;;;;32.77;7.47;;;;;;;20.43;100.00;100211.47;4194448;28;20232;-63
2022/08/25 03:40:54;;;;;;;26.47;7.20;;;;;;;20.43;100.00;100216.88;4212987;28;20231;-64
2022/08/25 03:43:20;;;;;;;22.67;6.27;;;;;;;20.50;100.00;100219.56;4245315;28;20235;-64
2022/08/25 03:45:47;;;;;;;22.60;6.63;;;;;;;20.50;100.00;100221.44;4220185;28;21601;-65
2022/08/25 03:48:14;;;;;;;39.17;7.67;;;;;;;20.64;100.00;100223.88;4220776;28;20236;-64
2022/08/25 03:50:48;;;;;;;33.73;8.00;;;;;;;20.58;100.00;100223.91;4230374;28;20229;-66
2022/08/25 03:53:17;;;;;;;28.13;6.80;;;;;;;20.58;100.00;100218.50;4226307;28;20244;-64
2022/08/25 03:55:44;;;;;;;28.63;7.20;;;;;;;20.58;100.00;100219.34;4220919;28;20231;-63
2022/08/25 03:58:11;;;;;;;29.63;6.87;;;;;;;20.63;100.00;100216.84;4223223;28;20230;-65
2022/08/25 04:00:37;;;;;;;22.77;6.97;;;;;;;20.57;100.00;100220.38;4230376;28;21650;-65
2022/08/25 04:03:04;;;;;;;29.33;6.97;;;;;;;20.61;100.00;100215.41;4222432;28;20380;-64
2022/08/25 04:05:31;;;;;;;25.43;7.10;;;;;;;20.59;100.00;100215.59;4218922;28;21661;-64
2022/08/25 04:08:00;;;;;;;29.37;7.27;;;;;;;20.59;100.00;100223.72;4215097;28;23596;-66
2022/08/25 04:10:30;;;;;;;24.90;7.63;;;;;;;20.65;100.00;100222.03;4237689;28;20306;-64
2022/08/25 04:12:58;;;;;;;23.57;7.27;;;;;;;20.68;100.00;100223.47;4236230;28;20235;-64
2022/08/25 04:15:24;;;;;;;25.37;6.83;;;;;;;20.71;100.00;100217.63;4219893;28;20231;-63
2022/08/25 04:17:56;;;;;;;38.17;7.67;;;;;;;20.76;100.00;100220.50;4233430;28;20249;-64
2022/08/25 04:20:24;;;;;;;37.30;7.60;;;;;;;20.73;100.00;100215.53;4246623;28;20234;-64
2022/08/25 04:22:50;;;;;;;28.80;7.00;;;;;;;20.73;100.00;100215.53;4232639;28;21771;-64
2022/08/25 04:25:17;;;;;;;26.80;6.53;;;;;;;20.77;100.00;100217.59;4254127;28;20434;-64
2022/08/25 04:27:44;;;;;;;34.60;7.07;;;;;;;20.80;100.00;100216.31;4229302;28;21205;-63
2022/08/25 04:30:11;;;;;;;27.57;6.47;;;;;;;20.80;100.00;100227.13;4254400;28;20480;-64
2022/08/25 04:32:39;;;;;;;33.97;7.37;;;;;;;20.82;100.00;100222.34;4226377;28;20256;-65
2022/08/25 04:35:06;;;;;;;37.53;8.83;;;;;;;20.80;100.00;100227.97;4226483;28;20352;-64
2022/08/25 04:37:33;;;;;;;30.30;7.67;;;;;;;20.80;100.00;100229.84;4241735;28;20243;-64
2022/08/25 04:40:00;;;;;;;26.57;6.47;;;;;;;20.88;100.00;100229.56;4249814;28;20844;-64
2022/08/25 04:42:26;;;;;;;32.80;7.20;;;;;;;20.91;100.00;100218.34;4216513;28;20792;-65
2022/08/25 04:44:53;;;;;;;27.23;6.80;;;;;;;21.03;100.00;100227.41;4222874;28;23167;-64
2022/08/25 04:47:20;;;;;;;28.87;7.33;;;;;;;21.00;100.00;100221.59;4229023;28;21274;-65
2022/08/25 04:49:47;;;;;;;21.30;7.10;;;;;;;21.10;100.00;100221.13;4225943;28;20277;-66
2022/08/25 04:52:14;;;;;;;32.03;7.37;;;;;;;21.16;100.00;100220.22;4232362;28;20320;-63
2022/08/25 04:54:42;;;;;;;35.63;7.40;;;;;;;21.21;100.00;100214.97;4225995;28;21824;-66
2022/08/25 04:57:09;;;;;;;30.13;7.43;;;;;;;21.26;100.00;100221.41;4216806;28;20236;-64
2022/08/25 04:59:36;;;;;;;33.37;7.40;;;;;;;21.33;100.00;100215.94;4214216;28;21471;-62
2022/08/25 05:02:04;;;;;;;30.67;7.97;;;;;;;21.37;100.00;100211.72;4223540;28;20541;-63
2022/08/25 05:04:34;;;;;;;30.37;7.73;;;;;;;21.52;100.00;100214.13;4217354;28;20471;-63
2022/08/25 05:07:02;;;;;;;31.40;7.53;;;;;;;21.54;100.00;100208.47;4228586;28;20243;-65
2022/08/25 05:09:29;;;;;;;42.87;7.93;;;;;;;21.56;100.00;100209.91;4221041;28;20368;-65
2022/08/25 05:11:58;;;;;;;32.07;6.97;;;;;;;21.62;100.00;100211.75;4227503;28;26223;-63
2022/08/25 05:14:25;;;;;;;29.23;7.53;;;;;;;21.74;100.00;100211.84;4224326;28;20237;-66
2022/08/25 05:16:53;;;;;;;41.33;8.03;;;;;;;21.84;100.00;100214.84;4201686;28;21197;-63
2022/08/25 05:19:21;;;;;;;30.67;8.23;;;;;;;22.06;100.00;100215.25;4212343;28;25762;-67
2022/08/25 05:21:48;;;;;;;36.97;7.73;;;;;;;22.20;98.80;100218.63;4231714;28;20232;-66
2022/08/25 05:24:14;;;;;;;28.17;7.37;;;;;;;22.32;98.08;100224.97;4222335;28;25577;-66
2022/08/25 05:26:42;;;;;;;38.77;7.47;;;;;;;22.39;97.99;100224.06;4221059;28;20546;-64
2022/08/25 05:29:09;;;;;;;38.57;7.80;;;;;;;22.54;96.68;100219.06;4216463;28;20259;-63
2022/08/25 05:31:36;;;;;;;43.27;7.87;;;;;;;22.66;94.94;100214.50;4223666;28;20305;-63
2022/08/25 05:34:08;;;;;;;48.10;8.67;;;;;;;22.73;94.33;100225.25;4216298;28;20244;-65
2022/08/25 05:36:35;;;;;;;50.53;7.60;;;;;;;22.87;92.95;100225.91;4214117;28;20243;-65
2022/08/25 05:39:02;;;;;;;39.17;7.37;;;;;;;22.81;93.08;100221.41;4234008;28;20367;-63
2022/08/25 05:41:30;;;;;;;37.00;8.77;;;;;;;23.02;91.62;100218.19;4224226;28;20246;-67
2022/08/25 05:43:57;;;;;;;54.40;8.43;;;;;;;23.06;91.88;100219.41;4221555;28;21860;-65
2022/08/25 05:46:24;;;;;;;38.87;8.90;;;;;;;23.10;91.80;100220.56;4225794;28;20357;-66
2022/08/25 05:48:52;;;;;;;41.70;8.17;;;;;;;23.22;90.81;100222.47;4221914;28;20229;-65
2022/08/25 05:51:19;;;;;;;39.30;8.23;;;;;;;23.37;90.38;100231.00;4216411;28;23664;-65
2022/08/25 05:53:47;;;;;;;38.40;7.23;;;;;;;23.42;90.19;100235.75;4199491;28;21816;-68
2022/08/25 05:56:14;;;;;;;43.23;8.63;;;;;;;23.39;89.01;100234.31;4225026;28;20236;-65
2022/08/25 05:58:42;;;;;;;44.60;8.40;;;;;;;23.49;88.06;100231.84;4210574;28;20668;-65
2022/08/25 06:03:54;;;;;;;41.00;7.50;;;;;;;23.79;86.13;100233.66;4193232;28;20382;-66
2022/08/25 06:06:23;;;;;;;42.00;8.77;;;;;;;24.02;85.57;100235.50;4213673;28;20242;-68
2022/08/25 06:08:50;;;;;;;44.60;7.97;;;;;;;24.11;83.42;100230.53;4208758;28;20266;-65
2022/08/25 06:11:16;;;;;;;36.50;8.23;;;;;;;24.23;83.20;100228.59;4221914;28;20402;-65
2022/08/25 06:13:44;;;;;;;38.70;7.80;;;;;;;24.40;80.56;100224.09;4219181;28;20236;-67
2022/08/25 06:16:11;;;;;;;47.93;7.50;;;;;;;24.71;79.68;100229.31;4231975;28;20234;-63
2022/08/25 06:18:37;;;;;;;38.83;6.63;;;;;;;24.87;78.53;100236.69;4241065;28;20447;-63
2022/08/25 06:21:12;;;;;;;42.57;7.97;;;;;;;24.94;78.02;100233.84;4221048;28;20647;-65
2022/08/25 06:23:39;;;;;;;42.47;8.27;;;;;;;25.18;77.82;100234.53;4237309;28;20243;-68
2022/08/25 06:26:09;;;;;;;29.37;7.27;;;;;;;25.38;75.07;100245.78;4209949;28;23517;-66
2022/08/25 06:28:46;;;;;;;38.23;7.07;;;;;;;25.52;74.56;100251.72;4216792;28;20429;-67
2022/08/25 06:31:16;;;;;;;38.97;7.57;;;;;;;25.54;74.85;100243.28;4229412;28;20312;-64
2022/08/25 06:33:44;;;;;;;45.83;8.30;;;;;;;25.67;72.60;100245.69;4226261;28;20250;-64
2022/08/25 06:36:11;;;;;;;47.03;7.60;;;;;;;26.02;70.87;100256.31;4246509;28;20357;-64
2022/08/25 06:38:37;;;;;;;33.10;7.73;;;;;;;26.14;70.01;100252.63;4233444;28;20247;-65
2022/08/25 06:41:06;;;;;;;47.57;9.63;;;;;;;26.15;69.90;100255.09;4237807;28;21304;-63
2022/08/25 06:43:33;;;;;;;32.00;6.83;;;;;;;26.27;69.26;100253.09;4227551;28;20248;-65
2022/08/25 06:46:09;;;;;;;34.97;7.43;;;;;;;26.41;69.49;100255.41;4212500;28;20235;-65
2022/08/25 06:48:36;;;;;;;41.27;8.00;;;;;;;26.71;68.29;100253.09;4214063;28;22979;-65
2022/08/25 06:51:08;;;;;;;31.83;7.73;;;;;;;27.03;67.52;100256.97;4227679;28;21781;-66
2022/08/25 06:53:39;;;;;;;46.43;8.50;;;;;;;27.19;67.61;100257.94;4220246;28;20224;-64
2022/08/25 06:56:06;;;;;;;39.57;8.40;;;;;;;27.40;65.43;100258.97;4219449;28;21638;-64
2022/08/25 06:58:32;;;;;;;43.40;8.13;;;;;;;27.68;64.10;100266.81;4237114;28;20606;-64
2022/08/25 07:01:08;;;;;;;43.23;7.87;;;;;;;27.83;64.16;100263.38;4262882;28;20242;-64
2022/08/25 07:03:41;;;;;;;33.43;8.63;;;;;;;27.92;61.37;100275.47;4199009;28;20228;-65
2022/08/25 07:06:08;;;;;;;37.77;7.70;;;;;;;27.78;62.09;100266.06;4242426;28;21267;-64
2022/08/25 07:08:36;;;;;;;30.90;7.30;;;;;;;27.81;62.79;100278.38;4228754;28;20321;-66
2022/08/25 07:11:06;;;;;;;40.53;8.63;;;;;;;27.77;60.52;100273.44;4230346;28;20274;-64
2022/08/25 07:13:41;;;;;;;48.37;8.37;;;;;;;27.60;61.51;100274.69;4195355;28;20235;-65
2022/08/25 07:16:10;;;;;;;31.27;7.80;;;;;;;27.49;60.67;100279.25;4216277;28;20240;-64
2022/08/25 07:18:37;;;;;;;31.87;7.57;;;;;;;27.53;60.77;100277.63;4233493;28;20410;-66
2022/08/25 07:21:04;;;;;;;40.83;7.13;;;;;;;27.61;60.70;100282.63;4209158;28;20500;-65
2022/08/25 07:23:34;;;;;;;30.70;7.10;;;;;;;28.00;59.79;100285.09;4256139;28;20759;-66
2022/08/25 07:26:17;;;;;;;38.97;10.63;;;;;;;28.52;57.29;100295.25;4218929;28;21828;-64
2022/08/25 07:29:14;;;;;;;30.67;7.57;;;;;;;28.92;55.78;100293.72;4238446;28;20563;-66
2022/08/25 07:31:41;;;;;;;44.53;7.70;;;;;;;29.10;55.47;100297.88;4257994;28;20362;-65
2022/08/25 07:36:55;;;;;;;32.20;7.07;;;;;;;29.50;53.01;100292.72;4257813;28;21317;-64
2022/08/25 07:39:26;;;;;;;40.37;7.77;;;;;;;29.87;50.83;100295.19;4249334;28;22273;-65
2022/08/25 07:41:55;;;;;;;34.33;7.67;;;;;;;29.95;51.04;100304.78;4232234;28;20394;-64
2022/08/25 07:44:23;;;;;;;48.00;8.02;;;;;;;29.72;49.52;100298.78;4256048;28;20244;-65
2022/08/25 07:46:53;;;;;;;37.17;7.22;;;;;;;29.69;50.80;100284.78;4239614;28;20913;-66
2022/08/25 07:49:22;;;;;;;36.87;7.80;;;;;;;30.13;48.77;100298.69;4205462;28;20229;-66
2022/08/25 07:51:50;;;;;;;39.55;7.50;;;;;;;30.16;48.91;100300.06;4264579;28;22145;-65
2022/08/25 07:54:32;;;;;;;38.47;7.60;;;;;;;30.26;52.15;100303.63;4250927;28;20310;-66
2022/08/25 07:57:01;;;;;;;34.72;7.43;;;;;;;30.67;48.60;100306.22;4244433;28;20233;-65
2022/08/25 07:59:28;;;;;;;39.40;9.57;;;;;;;30.94;47.48;100307.75;4232364;28;20232;-65
2022/08/25 08:01:54;;;;;;;45.83;8.02;;;;;;;31.23;48.28;100310.56;4248276;28;20232;-64
2022/08/25 08:04:22;;;;;;;39.97;8.13;;;;;;;31.48;46.62;100312.34;4252621;28;20244;-63
2022/08/25 08:06:48;;;;;;;40.67;7.00;;;;;;;31.64;45.15;100310.28;4207751;28;21573;-64
2022/08/25 08:09:15;;;;;;;35.53;7.28;;;;;;;32.00;44.13;100317.41;4236433;28;20558;-64
2022/08/25 08:11:43;;;;;;;38.65;6.80;;;;;;;32.51;43.30;100322.38;4264948;28;20391;-66
2022/08/25 08:14:19;;;;;;;38.20;7.10;;;;;;;32.60;41.03;100331.63;4263157;28;20372;-63
2022/08/25 08:16:46;;;;;;;37.40;7.43;;;;;;;32.15;42.07;100322.75;4249541;28;20880;-65
2022/08/25 08:19:15;;;;;;;34.42;7.30;;;;;;;31.95;43.72;100321.00;4263298;28;20247;-65
2022/08/25 08:21:42;;;;;;;36.58;7.15;;;;;;;32.02;45.01;100313.25;4286006;28;20301;-66
2022/08/25 08:24:09;;;;;;;37.92;7.90;;;;;;;31.57;45.29;100309.78;4260723;28;20384;-65
2022/08/25 08:26:58;;;;;;;36.40;7.13;;;;;;;31.25;45.44;100313.03;4261069;28;20243;-64
2022/08/25 08:29:26;;;;;;;32.25;6.88;;;;;;;31.52;45.52;100307.09;4228003;28;21266;-65
2022/08/25 08:31:53;;;;;;;40.88;7.20;;;;;;;31.44;45.84;100311.25;4245445;28;20613;-68
2022/08/25 08:34:22;;;;;;;34.60;7.73;;;;;;;31.50;45.88;100312.88;4232428;28;20762;-65
2022/08/25 08:36:51;;;;;;;34.10;7.57;;;;;;;31.65;46.60;100308.34;4263305;28;20230;-66
2022/08/25 08:39:18;;;;;;;35.70;7.73;;;;;;;31.37;47.36;100305.25;4240098;28;21618;-66
2022/08/25 08:42:16;;;;;;;43.90;7.90;;;;;;;31.23;47.09;100298.75;4211885;28;20283;-64
2022/08/25 08:44:46;;;;;;;43.80;7.57;;;;;;;31.47;47.21;100305.22;4240531;28;20331;-67
2022/08/25 08:47:51;;;;;;;40.88;7.93;;;;;;;31.05;46.30;100309.34;4248088;28;20918;-67
2022/08/25 08:50:36;;;;;;;42.70;8.40;;;;;;;30.83;47.86;100300.63;4260368;28;20300;-65
2022/08/25 08:53:18;;;;;;;37.95;7.80;;;;;;;30.85;47.42;100299.28;4214205;28;20542;-64
2022/08/25 08:56:05;;;;;;;36.55;7.15;;;;;;;31.17;47.97;100297.16;4229585;28;20440;-65
2022/08/25 08:58:46;;;;;;;40.10;8.82;;;;;;;31.12;48.84;100300.78;4233660;28;20240;-65
2022/08/25 09:01:24;;;;;;;39.38;8.65;;;;;;;30.87;50.66;100296.25;4220187;28;20240;-64
2022/08/25 09:04:09;;;;;;;42.22;8.70;;;;;;;30.42;52.00;100289.84;4195828;28;20532;-64
2022/08/25 09:06:43;;;;;;;44.17;7.78;;;;;;;30.12;53.86;100288.81;4228659;28;20231;-64
2022/08/25 09:09:17;;;;;;;46.65;7.75;;;;;;;30.14;53.48;100281.13;4242127;28;20243;-65
2022/08/25 09:11:45;;;;;;;36.53;7.57;;;;;;;30.24;53.55;100286.56;4223635;28;20261;-65
2022/08/25 09:14:43;;;;;;;41.42;7.43;;;;;;;30.44;51.98;100293.16;4231510;28;20257;-66
2022/08/25 09:17:21;;;;;;;29.45;8.15;;;;;;;30.21;52.72;100289.06;4232630;28;20259;-66
2022/08/25 09:20:03;;;;;;;36.22;7.93;;;;;;;29.88;55.53;100278.44;4214155;28;20558;-64
2022/08/25 09:23:05;;;;;;;38.43;8.10;;;;;;;29.80;55.98;100276.25;4247277;28;20319;-65
2022/08/25 09:25:54;;;;;;;35.17;7.40;;;;;;;30.03;55.19;100279.50;4227305;28;20270;-65
2022/08/25 09:28:29;;;;;;;32.75;8.20;;;;;;;30.32;54.99;100281.63;4254417;28;21528;-66
2022/08/25 09:31:00;;;;;;;45.90;8.18;;;;;;;30.36;54.45;100280.00;4207719;28;20690;-66
2022/08/25 09:33:30;;;;;;;48.10;7.90;;;;;;;30.70;52.54;100275.44;4255249;28;20240;-67
2022/08/25 09:36:01;;;;;;;30.05;7.45;;;;;;;30.88;51.67;100281.38;4244388;28;20438;-65
2022/08/25 09:38:32;;;;;;;48.15;8.55;;;;;;;31.00;50.50;100287.38;4223213;28;20232;-65
2022/08/25 09:41:00;;;;;;;51.90;8.30;;;;;;;31.04;50.32;100277.44;4220387;28;20246;-67
2022/08/25 09:43:40;;;;;;;41.88;7.88;;;;;;;30.83;51.99;100270.41;4236698;28;20232;-65
2022/08/25 09:46:07;;;;;;;47.92;9.65;;;;;;;30.86;52.50;100272.59;4222082;28;22266;-64
2022/08/25 09:48:41;;;;;;;39.35;7.80;;;;;;;30.76;51.66;100272.66;4223824;28;21482;-68
2022/08/25 09:51:13;;;;;;;42.55;8.07;;;;;;;30.50;54.31;100267.28;4220250;28;20247;-66
2022/08/25 09:53:47;;;;;;;47.83;9.35;;;;;;;30.56;54.81;100257.13;4228445;28;20268;-65
2022/08/25 09:56:18;;;;;;;41.03;8.17;;;;;;;30.33;51.64;100253.09;4212921;28;21228;-67
2022/08/25 09:58:45;;;;;;;34.72;8.13;;;;;;;30.16;55.78;100248.75;4218866;28;21053;-65
2022/08/25 10:01:12;;;;;;;50.75;8.07;;;;;;;30.38;55.56;100242.91;4235240;28;20231;-65
2022/08/25 10:04:08;;;;;;;40.27;8.57;;;;;;;30.67;53.48;100237.53;4228744;28;20239;-68
2022/08/25 10:06:46;;;;;;;37.10;7.67;;;;;;;30.28;49.42;100254.75;4207938;28;20228;-65
2022/08/25 10:09:25;;;;;;;32.35;7.70;;;;;;;30.42;46.44;100249.47;4228618;28;22596;-66
2022/08/25 10:11:53;;;;;;;43.00;7.40;;;;;;;30.73;45.83;100246.56;4218414;28;20340;-64
2022/08/25 10:14:23;;;;;;;35.38;6.78;;;;;;;30.71;46.83;100243.28;4233890;28;20341;-66
2022/08/25 10:16:50;;;;;;;27.63;6.68;;;;;;;30.59;46.79;100229.88;4232301;28;20232;-66
2022/08/25 10:19:28;;;;;;;29.77;6.60;;;;;;;30.84;46.42;100231.69;4204140;28;22236;-68
2022/08/25 10:22:06;;;;;;;27.20;5.80;;;;;;;30.95;41.53;100231.63;4221834;28;25473;-67
2022/08/25 10:24:34;;;;;;;27.60;5.70;;;;;;;31.23;41.43;100236.31;4227437;28;20567;-66
2022/08/25 10:27:26;;;;;;;29.63;6.70;;;;;;;31.40;44.00;100232.34;4231641;28;21759;-67
2022/08/25 10:30:18;;;;;;;35.95;7.15;;;;;;;31.55;46.14;100226.75;4245515;28;20271;-69
2022/08/25 10:33:09;;;;;;;29.50;6.68;;;;;;;31.58;40.64;100233.59;4237660;28;23634;-65
2022/08/25 10:35:41;;;;;;;25.25;5.85;;;;;;;31.64;40.16;100235.19;4245796;28;20296;-65
2022/08/25 10:38:16;;;;;;;19.98;4.95;;;;;;;31.79;34.47;100239.69;4246768;28;20262;-68
2022/08/25 10:41:03;;;;;;;36.42;5.60;;;;;;;31.79;36.55;100239.69;4222558;28;23167;-67
2022/08/25 10:43:45;;;;;;;27.75;6.25;;;;;;;31.94;39.74;100237.59;4239772;28;21076;-64
2022/08/25 10:46:24;;;;;;;30.35;6.93;;;;;;;31.85;40.18;100220.09;4230441;28;20517;-66
2022/08/25 10:49:02;;;;;;;34.47;7.60;;;;;;;31.54;43.35;100212.16;4226324;28;21652;-64
2022/08/25 10:51:57;;;;;;;30.92;6.82;;;;;;;31.64;36.37;100215.94;4204684;28;21850;-68
2022/08/25 10:54:48;;;;;;;21.33;4.90;;;;;;;31.64;31.61;100222.25;4273486;28;20237;-79
2022/08/25 10:57:34;;;;;;;16.65;3.55;;;;;;;31.67;27.54;100220.84;4286132;28;20228;-80
2022/08/25 11:00:22;;;;;;;13.48;3.75;;;;;;;31.60;28.17;100220.38;4242599;28;20240;-78
2022/08/25 11:03:33;;;;;;;14.10;3.58;;;;;;;31.93;30.84;100207.63;4221492;28;20362;-62
2022/08/25 11:06:06;;;;;;;14.57;3.30;;;;;;;31.98;25.31;100215.03;4240889;28;20277;-76
2022/08/25 11:08:42;;;;;;;16.73;3.72;;;;;;;32.08;23.02;100201.16;4217440;28;23083;-75
2022/08/25 11:11:25;;;;;;;14.07;3.10;;;;;;;32.19;21.38;100210.91;4218794;28;20244;-75
2022/08/25 11:13:58;;;;;;;14.15;2.90;;;;;;;32.10;23.61;100207.16;4219343;28;20233;-76
2022/08/25 11:16:43;;;;;;;15.03;2.87;;;;;;;32.19;23.59;100205.38;4226261;28;20922;-77
2022/08/25 11:19:18;;;;;;;12.07;3.22;;;;;;;32.27;23.96;100206.69;4210859;28;25678;-80
2022/08/25 11:22:11;;;;;;;18.30;3.35;;;;;;;32.34;22.95;100196.94;4228328;28;22838;-78
2022/08/25 11:24:43;;;;;;;11.70;3.83;;;;;;;32.49;24.41;100203.34;4211703;28;21737;-75
2022/08/25 11:27:23;;;;;;;20.92;3.53;;;;;;;32.74;22.61;100204.94;4212325;28;20236;-75
2022/08/25 11:30:05;;;;;;;18.15;3.67;;;;;;;32.93;21.70;100197.47;4214685;28;22829;-73
2022/08/25 11:32:34;;;;;;;16.35;3.13;;;;;;;33.06;21.89;100195.94;4227474;28;21689;-73
2022/08/25 11:35:07;;;;;;;15.85;3.30;;;;;;;33.21;21.75;100195.66;4224252;28;23254;-74
2022/08/25 11:38:03;;;;;;;14.68;2.72;;;;;;;33.42;20.65;100201.63;4223207;28;20278;-74
2022/08/25 11:40:53;;;;;;;16.77;3.03;;;;;;;33.42;20.45;100201.63;4222847;28;22341;-74
2022/08/25 11:43:42;;;;;;;14.05;3.38;;;;;;;33.38;22.22;100197.81;4221057;28;20282;-73